createdAt,value
2023-02-19T00:00:23.422Z,38.50
2023-02-19T00:05:27.610Z,38.50
2023-02-19T00:10:30.431Z,38.50
2023-02-19T00:15:33.894Z,38.50
2023-02-19T00:20:38.067Z,38.50
2023-02-19T00:25:40.949Z,38.50
2023-02-19T00:30:43.837Z,38.50
2023-02-19T00:35:48.034Z,38.50
2023-02-19T00:40:50.848Z,38.50
2023-02-19T00:45:53.725Z,38.50
2023-02-19T00:50:57.934Z,38.50
2023-02-19T00:56:00.771Z,38.50
2023-02-19T01:01:04.083Z,38.50
2023-02-19T01:06:10.440Z,38.50
2023-02-19T01:11:14.073Z,38.50
2023-02-19T01:16:20.489Z,38.50
2023-02-19T01:21:26.558Z,38.50
2023-02-19T01:26:32.085Z,38.50
2023-02-19T01:31:35.047Z,38.40
2023-02-19T01:36:39.289Z,38.40
2023-02-19T01:41:43.030Z,38.40
2023-02-19T01:46:48.497Z,38.40
2023-02-19T01:51:57.925Z,38.40
2023-02-19T01:57:02.971Z,38.40
2023-02-19T02:02:05.834Z,38.30
2023-02-19T02:07:24.520Z,38.30
2023-02-19T02:12:27.342Z,38.30
2023-02-19T02:17:38.461Z,38.30
2023-02-19T02:22:47.337Z,38.30
2023-02-19T02:28:03.199Z,38.30
2023-02-19T02:33:18.692Z,38.30
2023-02-19T02:38:24.738Z,38.30
2023-02-19T02:43:27.589Z,38.20
2023-02-19T02:48:36.814Z,38.20
2023-02-19T02:54:03.356Z,38.20
2023-02-19T02:59:09.526Z,38.30
2023-02-19T03:04:20.998Z,38.20
2023-02-19T03:09:30.081Z,38.20
2023-02-19T03:14:56.478Z,38.20
2023-02-19T03:20:04.758Z,38.20
2023-02-19T03:25:34.542Z,38.20
2023-02-19T03:30:44.693Z,38.10
2023-02-19T03:35:53.769Z,38.10
2023-02-19T03:41:04.975Z,38.10
2023-02-19T03:46:11.364Z,38.10
2023-02-19T03:51:30.928Z,38.10
2023-02-19T03:56:39.659Z,38.00
2023-02-19T04:01:46.495Z,38.10
2023-02-19T04:06:55.804Z,38.10
2023-02-19T04:12:00.456Z,38.10
2023-02-19T04:17:06.385Z,38.10
2023-02-19T04:22:13.305Z,38.10
2023-02-19T04:27:16.563Z,38.10
2023-02-19T04:32:19.552Z,38.00
2023-02-19T04:37:23.760Z,38.10
2023-02-19T04:42:26.645Z,38.10
2023-02-19T04:47:29.666Z,38.10
2023-02-19T04:52:34.330Z,38.10
2023-02-19T04:57:37.277Z,38.10
2023-02-19T05:02:40.217Z,38.10
2023-02-19T05:07:44.411Z,38.10
2023-02-19T05:12:47.222Z,38.10
2023-02-19T05:17:50.080Z,38.10
2023-02-19T05:22:54.234Z,38.20
2023-02-19T05:28:17.030Z,38.20
2023-02-19T05:33:21.384Z,38.00
2023-02-19T05:38:26.133Z,37.90
2023-02-19T05:43:29.017Z,37.80
2023-02-19T05:48:31.882Z,37.70
2023-02-19T05:53:36.577Z,37.70
2023-02-19T05:58:39.368Z,37.70
2023-02-19T06:03:42.220Z,37.70
2023-02-19T06:08:47.062Z,37.80
2023-02-19T06:13:50.611Z,37.80
2023-02-19T06:18:53.585Z,37.90
2023-02-19T06:23:57.740Z,37.90
2023-02-19T06:29:00.647Z,37.90
2023-02-19T06:34:05.729Z,37.90
2023-02-19T06:39:11.171Z,38.00
2023-02-19T06:44:13.982Z,38.10
2023-02-19T06:49:16.899Z,38.10
2023-02-19T06:54:21.086Z,38.10
2023-02-19T06:59:24.955Z,38.10
2023-02-19T07:04:27.956Z,38.00
2023-02-19T07:09:32.502Z,38.00
2023-02-19T07:14:35.448Z,38.20
2023-02-19T07:19:38.366Z,38.20
2023-02-19T07:24:42.585Z,38.30
2023-02-19T07:29:45.465Z,38.40
2023-02-19T07:34:48.324Z,38.30
2023-02-19T07:39:52.544Z,38.30
2023-02-19T07:44:55.362Z,38.30
2023-02-19T07:49:58.309Z,38.40
2023-02-19T07:55:02.631Z,38.40
2023-02-19T08:00:06.273Z,38.70
2023-02-19T08:05:10.541Z,38.60
2023-02-19T08:10:32.231Z,38.60
2023-02-19T08:15:35.119Z,38.70
2023-02-19T08:20:38.188Z,38.50
2023-02-19T08:25:43.384Z,38.70
2023-02-19T08:30:47.891Z,38.50
2023-02-19T08:35:50.809Z,38.40
2023-02-19T08:40:55.046Z,38.50
2023-02-19T08:45:58.076Z,38.30
2023-02-19T08:51:03.964Z,38.40
2023-02-19T08:56:09.297Z,38.50
2023-02-19T09:01:14.569Z,38.40
2023-02-19T09:06:19.814Z,38.50
2023-02-19T09:11:24.062Z,38.60
2023-02-19T09:16:27.032Z,38.70
2023-02-19T09:21:29.973Z,38.90
2023-02-19T09:26:34.168Z,38.90
2023-02-19T09:31:37.120Z,39.00
2023-02-19T09:36:40.732Z,39.10
2023-02-19T09:41:47.400Z,39.00
2023-02-19T09:46:52.053Z,39.00
2023-02-19T09:51:59.868Z,39.00
2023-02-19T09:57:05.272Z,39.00
2023-02-19T10:02:15.430Z,39.00
2023-02-19T10:07:20.467Z,38.90
2023-02-19T10:12:27.754Z,38.90
2023-02-19T10:17:34.681Z,38.90
2023-02-19T10:22:39.001Z,38.80
2023-02-19T10:27:44.079Z,38.80
2023-02-19T10:33:01.128Z,38.80
2023-02-19T10:38:06.684Z,38.80
2023-02-19T10:43:23.374Z,38.80
2023-02-19T10:48:30.590Z,38.70
2023-02-19T10:53:42.048Z,38.80
2023-02-19T10:58:47.233Z,38.80
2023-02-19T11:03:51.381Z,38.80
2023-02-19T11:08:56.772Z,38.80
2023-02-19T11:14:03.731Z,38.80
2023-02-19T11:19:06.802Z,38.70
2023-02-19T11:24:27.112Z,38.70
2023-02-19T11:29:34.798Z,38.60
2023-02-19T11:34:37.673Z,38.60
2023-02-19T11:39:42.635Z,38.50
2023-02-19T11:44:56.022Z,38.50
2023-02-19T11:50:04.386Z,38.60
2023-02-19T11:55:18.025Z,38.70
2023-02-19T12:00:25.983Z,38.70
2023-02-19T12:05:40.113Z,38.80
2023-02-19T12:11:04.799Z,38.90
2023-02-19T12:16:19.061Z,39.10
2023-02-19T12:21:37.279Z,39.20
2023-02-19T12:26:48.449Z,39.20
2023-02-19T12:32:16.535Z,39.10
2023-02-19T12:37:29.056Z,39.10
2023-02-19T12:42:51.182Z,39.10
2023-02-19T12:48:02.853Z,39.10
2023-02-19T12:53:13.813Z,39.10
2023-02-19T12:58:27.125Z,39.10
2023-02-19T13:03:35.831Z,39.10
2023-02-19T13:09:03.464Z,39.10
2023-02-19T13:14:16.095Z,39.00
2023-02-19T13:19:20.253Z,39.00
2023-02-19T13:24:27.290Z,39.00
2023-02-19T13:29:47.555Z,39.00
2023-02-19T13:35:03.353Z,39.10
2023-02-19T13:40:23.806Z,39.10
2023-02-19T13:45:33.997Z,39.00
2023-02-19T13:50:38.216Z,39.00
2023-02-19T13:55:49.635Z,39.00
2023-02-19T14:00:53.804Z,39.00
2023-02-19T14:06:05.937Z,39.00
2023-02-19T14:11:08.965Z,39.00
2023-02-19T14:16:44.690Z,39.00
2023-02-19T14:21:48.900Z,39.00
2023-02-19T14:26:51.823Z,38.90
2023-02-19T14:31:54.850Z,38.90
2023-02-19T14:37:01.572Z,38.90
2023-02-19T14:42:08.481Z,38.80
2023-02-19T14:47:17.773Z,38.90
2023-02-19T14:52:25.737Z,38.80
2023-02-19T14:57:31.270Z,38.80
2023-02-19T15:02:42.787Z,38.70
2023-02-19T15:07:47.271Z,38.70
2023-02-19T15:12:52.930Z,38.70
2023-02-19T15:17:57.760Z,38.70
2023-02-19T15:23:02.873Z,38.70
2023-02-19T15:28:21.036Z,38.70
2023-02-19T15:33:24.255Z,38.70
2023-02-19T15:38:29.681Z,38.70
2023-02-19T15:43:40.703Z,38.70
2023-02-19T15:48:48.056Z,38.70
2023-02-19T15:53:58.666Z,38.70
2023-02-19T15:59:06.472Z,38.70
2023-02-19T16:04:13.888Z,39.30
2023-02-19T16:09:22.369Z,38.60
2023-02-19T16:14:30.414Z,38.60
2023-02-19T16:19:43.559Z,38.60
2023-02-19T16:24:50.449Z,38.60
2023-02-19T16:29:53.445Z,38.50
2023-02-19T16:34:56.343Z,38.50
2023-02-19T16:40:37.662Z,38.50
2023-02-19T16:45:42.470Z,38.50
2023-02-19T16:50:46.248Z,38.40
2023-02-19T16:55:50.436Z,38.80
2023-02-19T17:00:53.450Z,38.80
2023-02-19T17:05:57.763Z,39.00
2023-02-19T17:11:03.855Z,39.10
2023-02-19T17:16:06.938Z,39.20
2023-02-19T17:21:15.311Z,39.20
2023-02-19T17:26:21.881Z,39.30
2023-02-19T17:31:24.859Z,39.10
2023-02-19T17:36:30.599Z,39.10
2023-02-19T17:41:34.891Z,39.20
2023-02-19T17:46:39.901Z,39.10
2023-02-19T17:51:42.852Z,39.20
2023-02-19T17:56:47.588Z,39.10
2023-02-19T18:01:50.495Z,39.10
2023-02-19T18:06:54.156Z,38.10
2023-02-19T18:11:58.408Z,39.00
2023-02-19T18:17:01.452Z,36.50
2023-02-19T18:22:06.507Z,35.20
2023-02-19T18:27:10.925Z,36.90
2023-02-19T18:32:13.829Z,37.00
2023-02-19T18:37:16.968Z,36.80
2023-02-19T18:42:22.969Z,36.80
2023-02-19T18:47:26.612Z,36.80
2023-02-19T18:52:29.600Z,36.40
2023-02-19T18:57:33.838Z,36.20
2023-02-19T19:02:48.698Z,35.70
2023-02-19T19:07:53.109Z,35.40
2023-02-19T19:12:57.925Z,35.10
2023-02-19T19:18:02.661Z,35.40
2023-02-19T19:23:06.312Z,35.60
2023-02-19T19:28:10.838Z,35.40
2023-02-19T19:33:14.224Z,35.60
2023-02-19T19:38:17.456Z,35.50
2023-02-19T19:43:21.705Z,35.50
2023-02-19T19:48:27.457Z,35.30
2023-02-19T19:53:30.331Z,35.30
2023-02-19T19:58:36.666Z,35.40
2023-02-19T20:03:40.875Z,35.40
2023-02-19T20:08:43.686Z,35.40
2023-02-19T20:13:48.014Z,35.40
2023-02-19T20:18:50.976Z,35.30
2023-02-19T20:23:53.815Z,35.40
2023-02-19T20:28:58.773Z,35.40
2023-02-19T20:34:01.995Z,35.50
2023-02-19T20:39:05.115Z,35.60
2023-02-19T20:44:09.298Z,35.60
2023-02-19T20:49:12.212Z,35.80
2023-02-19T20:54:15.435Z,35.80
2023-02-19T20:59:20.642Z,36.10
2023-02-19T21:04:23.546Z,35.90
2023-02-19T21:09:26.479Z,35.90
2023-02-19T21:14:30.824Z,35.90
2023-02-19T21:19:33.776Z,35.90
2023-02-19T21:24:36.787Z,36.00
2023-02-19T21:29:40.929Z,36.00
2023-02-19T21:34:43.962Z,35.90
2023-02-19T21:39:47.047Z,35.80
2023-02-19T21:44:51.270Z,35.60
2023-02-19T21:49:54.204Z,35.40
2023-02-19T21:54:57.141Z,35.20
2023-02-19T22:00:01.321Z,35.30
2023-02-19T22:05:04.619Z,35.30
2023-02-19T22:10:09.893Z,35.40
2023-02-19T22:15:15.064Z,35.40
2023-02-19T22:20:19.545Z,35.40
2023-02-19T22:25:22.746Z,35.50
2023-02-19T22:30:26.986Z,35.50
2023-02-19T22:35:29.938Z,35.50
2023-02-19T22:40:32.890Z,35.60
2023-02-19T22:45:37.049Z,35.60
2023-02-19T22:50:39.850Z,35.70
2023-02-19T22:55:42.653Z,35.60
2023-02-19T23:00:46.945Z,35.70
2023-02-19T23:05:49.812Z,35.80
2023-02-19T23:10:52.613Z,35.80
2023-02-19T23:15:56.789Z,35.70
2023-02-19T23:20:59.628Z,35.80
2023-02-19T23:26:03.322Z,35.80
2023-02-19T23:31:07.822Z,35.80
2023-02-19T23:36:11.272Z,35.80
2023-02-19T23:41:16.697Z,35.80
2023-02-19T23:46:20.873Z,35.80
2023-02-19T23:51:24.661Z,36.10
2023-02-19T23:56:29.816Z,35.90
